createdAt,value
2023-02-11T00:00:52.045Z,9.33
2023-02-11T00:03:22.450Z,10.97
2023-02-11T00:06:03.157Z,12.37
2023-02-11T00:08:30.456Z,12.27
2023-02-11T00:11:03.695Z,14.17
2023-02-11T00:13:30.363Z,12.97
2023-02-11T00:15:56.768Z,11.97
2023-02-11T00:18:23.882Z,11.80
2023-02-11T00:20:51.641Z,13.20
2023-02-11T00:23:19.448Z,12.67
2023-02-11T00:25:46.176Z,12.87
2023-02-11T00:28:12.966Z,12.87
2023-02-11T00:30:40.863Z,12.90
2023-02-11T00:33:08.248Z,11.27
2023-02-11T00:35:39.311Z,11.57
2023-02-11T00:38:08.110Z,10.00
2023-02-11T00:40:35.046Z,13.57
2023-02-11T00:43:05.364Z,14.10
2023-02-11T00:45:33.022Z,11.73
2023-02-11T00:48:01.074Z,11.93
2023-02-11T00:50:27.935Z,13.57
2023-02-11T00:52:55.926Z,12.87
2023-02-11T00:55:22.801Z,11.57
2023-02-11T00:57:54.106Z,10.70
2023-02-11T01:00:23.178Z,10.77
2023-02-11T01:02:49.927Z,9.80
2023-02-11T01:05:16.777Z,12.40
2023-02-11T01:07:43.542Z,11.60
2023-02-11T01:10:10.596Z,12.77
2023-02-11T01:12:38.950Z,11.07
2023-02-11T01:15:06.159Z,12.10
2023-02-11T01:17:34.761Z,11.00
2023-02-11T01:20:04.061Z,11.50
2023-02-11T01:22:30.577Z,12.83
2023-02-11T01:24:57.029Z,11.80
2023-02-11T01:27:24.583Z,13.00
2023-02-11T01:29:51.117Z,11.40
2023-02-11T01:32:22.440Z,11.70
2023-02-11T01:34:50.476Z,11.60
2023-02-11T01:37:19.241Z,11.17
2023-02-11T01:39:49.510Z,11.40
2023-02-11T01:42:19.219Z,10.73
2023-02-11T01:44:49.534Z,12.03
2023-02-11T01:47:16.184Z,11.20
2023-02-11T01:49:50.336Z,12.43
2023-02-11T01:52:20.106Z,13.07
2023-02-11T01:55:07.935Z,11.73
2023-02-11T01:57:35.397Z,12.53
2023-02-11T02:00:08.480Z,11.73
2023-02-11T02:02:44.315Z,10.67
2023-02-11T02:05:39.923Z,11.33
2023-02-11T02:08:16.162Z,12.43
2023-02-11T02:10:46.235Z,12.17
2023-02-11T02:13:14.314Z,12.77
2023-02-11T02:15:52.952Z,10.47
2023-02-11T02:18:41.802Z,11.07
2023-02-11T02:21:21.504Z,12.23
2023-02-11T02:23:55.017Z,10.57
2023-02-11T02:26:27.404Z,10.77
2023-02-11T02:29:13.535Z,11.57
2023-02-11T02:31:52.689Z,12.00
2023-02-11T02:34:27.076Z,12.13
2023-02-11T02:37:18.117Z,12.13
2023-02-11T02:39:45.429Z,10.43
2023-02-11T02:42:13.557Z,10.80
2023-02-11T02:44:39.931Z,10.67
2023-02-11T02:47:10.119Z,12.27
2023-02-11T02:49:36.685Z,11.57
2023-02-11T02:52:15.840Z,9.30
2023-02-11T02:55:05.717Z,13.07
2023-02-11T02:57:43.184Z,12.57
2023-02-11T03:00:14.952Z,11.40
2023-02-11T03:03:06.031Z,10.40
2023-02-11T03:05:35.398Z,11.37
2023-02-11T03:08:22.353Z,13.23
2023-02-11T03:10:51.029Z,9.95
2023-02-11T03:13:19.632Z,11.13
2023-02-11T03:15:50.152Z,9.87
2023-02-11T03:18:18.631Z,11.40
2023-02-11T03:20:47.830Z,12.17
2023-02-11T03:23:18.139Z,10.83
2023-02-11T03:25:52.727Z,12.10
2023-02-11T03:28:24.722Z,11.50
2023-02-11T03:31:09.173Z,12.40
2023-02-11T03:33:43.723Z,11.90
2023-02-11T03:36:15.370Z,13.27
2023-02-11T03:38:52.316Z,12.83
2023-02-11T03:41:21.483Z,11.60
2023-02-11T03:43:55.168Z,10.70
2023-02-11T03:46:23.803Z,13.20
2023-02-11T03:48:53.628Z,11.77
2023-02-11T03:51:24.835Z,11.63
2023-02-11T03:53:52.662Z,11.70
2023-02-11T03:56:23.063Z,13.10
2023-02-11T03:58:51.841Z,13.27
2023-02-11T04:01:18.292Z,13.07
2023-02-11T04:03:48.051Z,11.37
2023-02-11T04:06:17.780Z,12.43
2023-02-11T04:08:47.765Z,12.60
2023-02-11T04:11:17.085Z,12.43
2023-02-11T04:13:43.971Z,12.03
2023-02-11T04:16:12.851Z,10.60
2023-02-11T04:18:41.022Z,10.50
2023-02-11T04:21:08.078Z,11.33
2023-02-11T04:23:34.924Z,10.00
2023-02-11T04:26:01.566Z,12.57
2023-02-11T04:28:29.677Z,11.37
2023-02-11T04:30:57.797Z,10.73
2023-02-11T04:33:27.016Z,10.17
2023-02-11T04:35:56.582Z,10.70
2023-02-11T04:38:24.095Z,9.40
2023-02-11T04:40:50.704Z,11.30
2023-02-11T04:43:17.426Z,11.40
2023-02-11T04:45:46.595Z,10.53
2023-02-11T04:48:15.809Z,11.03
2023-02-11T04:50:44.180Z,11.77
2023-02-11T04:53:12.719Z,10.97
2023-02-11T04:55:39.954Z,10.73
2023-02-11T04:58:08.216Z,11.67
2023-02-11T05:00:35.667Z,10.37
2023-02-11T05:03:03.798Z,10.63
2023-02-11T05:05:34.580Z,10.17
2023-02-11T05:08:00.981Z,10.73
2023-02-11T05:10:28.061Z,11.90
2023-02-11T05:12:56.957Z,9.37
2023-02-11T05:15:24.136Z,10.20
2023-02-11T05:17:50.514Z,11.33
2023-02-11T05:20:17.042Z,11.27
2023-02-11T05:22:43.589Z,12.00
2023-02-11T05:25:09.928Z,10.17
2023-02-11T05:27:36.393Z,10.40
2023-02-11T05:30:02.777Z,10.70
2023-02-11T05:32:30.036Z,9.50
2023-02-11T05:37:41.930Z,9.23
2023-02-11T05:40:09.254Z,12.40
2023-02-11T05:42:35.823Z,11.30
2023-02-11T05:45:02.638Z,10.00
2023-02-11T05:47:29.234Z,10.37
2023-02-11T05:49:55.586Z,10.53
2023-02-11T05:52:22.465Z,11.37
2023-02-11T05:54:51.282Z,10.83
2023-02-11T05:57:19.797Z,11.33
2023-02-11T05:59:48.165Z,11.40
2023-02-11T06:02:15.045Z,11.07
2023-02-11T06:04:44.758Z,10.07
2023-02-11T06:07:11.364Z,10.43
2023-02-11T06:09:39.671Z,11.77
2023-02-11T06:12:06.171Z,9.87
2023-02-11T06:14:37.689Z,10.57
2023-02-11T06:17:05.682Z,11.20
2023-02-11T06:19:34.629Z,10.73
2023-02-11T06:22:02.620Z,9.30
2023-02-11T06:24:54.992Z,9.33
2023-02-11T06:27:20.554Z,9.93
2023-02-11T06:29:47.869Z,10.30
2023-02-11T06:32:36.866Z,8.70
2023-02-11T06:35:04.895Z,9.77
2023-02-11T06:37:31.881Z,9.67
2023-02-11T06:40:00.646Z,9.07
2023-02-11T06:42:29.605Z,10.83
2023-02-11T06:44:57.477Z,8.47
2023-02-11T06:47:24.225Z,11.17
2023-02-11T06:49:50.761Z,12.00
2023-02-11T06:52:18.314Z,10.43
2023-02-11T06:54:45.687Z,9.67
2023-02-11T06:57:13.796Z,9.40
2023-02-11T06:59:40.737Z,11.20
2023-02-11T07:02:10.864Z,9.10
2023-02-11T07:04:38.709Z,11.93
2023-02-11T07:07:09.416Z,9.57
2023-02-11T07:09:35.803Z,9.20
2023-02-11T07:12:02.284Z,11.40
2023-02-11T07:14:31.189Z,9.70
2023-02-11T07:16:59.372Z,14.20
2023-02-11T07:19:26.212Z,10.70
2023-02-11T07:21:55.942Z,11.17
2023-02-11T07:24:25.441Z,9.03
2023-02-11T07:26:53.350Z,8.53
2023-02-11T07:29:19.911Z,10.67
2023-02-11T07:31:47.022Z,10.00
2023-02-11T07:34:13.734Z,9.97
2023-02-11T07:36:44.990Z,10.63
2023-02-11T07:39:11.370Z,9.20
2023-02-11T07:41:44.600Z,10.37
2023-02-11T07:44:11.379Z,9.37
2023-02-11T07:46:45.080Z,8.53
2023-02-11T07:49:12.813Z,9.63
2023-02-11T07:51:40.529Z,8.00
2023-02-11T07:54:06.978Z,10.03
2023-02-11T07:56:38.460Z,8.57
2023-02-11T07:59:05.911Z,7.63
2023-02-11T08:01:35.030Z,9.47
2023-02-11T08:04:05.804Z,9.87
2023-02-11T08:06:33.904Z,9.60
2023-02-11T08:09:05.805Z,9.37
2023-02-11T08:11:34.123Z,9.20
2023-02-11T08:14:03.268Z,9.43
2023-02-11T08:16:30.990Z,8.57
2023-02-11T08:18:58.309Z,8.97
2023-02-11T08:21:28.534Z,10.40
2023-02-11T08:23:56.559Z,10.07
2023-02-11T08:26:29.499Z,9.07
2023-02-11T08:28:59.334Z,8.47
2023-02-11T08:31:27.460Z,8.93
2023-02-11T08:33:58.601Z,9.10
2023-02-11T08:36:30.133Z,10.70
2023-02-11T08:39:15.939Z,8.70
2023-02-11T08:41:43.053Z,8.70
2023-02-11T08:44:12.806Z,9.87
2023-02-11T08:46:42.814Z,8.00
2023-02-11T08:49:09.160Z,9.10
2023-02-11T08:51:37.041Z,9.30
2023-02-11T08:54:07.216Z,8.43
2023-02-11T08:56:35.441Z,10.83
2023-02-11T08:59:02.148Z,8.97
2023-02-11T09:01:31.670Z,8.20
2023-02-11T09:03:58.666Z,8.97
2023-02-11T09:06:26.926Z,10.10
2023-02-11T09:08:57.789Z,10.70
2023-02-11T09:11:30.460Z,9.13
2023-02-11T09:13:59.406Z,10.80
2023-02-11T09:16:31.665Z,8.60
2023-02-11T09:18:59.131Z,9.63
2023-02-11T09:21:25.733Z,9.50
2023-02-11T09:23:55.811Z,10.47
2023-02-11T09:26:29.624Z,9.13
2023-02-11T09:29:03.570Z,10.00
2023-02-11T09:31:31.073Z,8.83
2023-02-11T09:34:00.729Z,10.30
2023-02-11T09:36:29.793Z,9.97
2023-02-11T09:38:59.203Z,10.10
2023-02-11T09:41:28.391Z,11.27
2023-02-11T09:44:00.823Z,9.40
2023-02-11T09:46:36.585Z,10.00
2023-02-11T09:49:04.959Z,10.30
2023-02-11T09:51:49.594Z,10.07
2023-02-11T09:54:26.882Z,8.47
2023-02-11T09:56:54.462Z,9.90
2023-02-11T09:59:21.914Z,9.60
2023-02-11T10:01:50.686Z,10.17
2023-02-11T10:04:27.039Z,9.87
2023-02-11T10:07:03.955Z,10.82
2023-02-11T10:09:39.475Z,11.03
2023-02-11T10:12:25.661Z,11.03
2023-02-11T10:15:23.100Z,10.10
2023-02-11T10:17:54.380Z,10.77
2023-02-11T10:20:28.007Z,11.27
2023-02-11T10:22:59.752Z,11.17
2023-02-11T10:25:42.676Z,10.33
2023-02-11T10:28:15.881Z,9.53
2023-02-11T10:31:00.414Z,10.20
2023-02-11T10:33:32.523Z,8.93
2023-02-11T10:36:02.092Z,10.00
2023-02-11T10:38:28.470Z,9.90
2023-02-11T10:40:54.868Z,9.77
2023-02-11T10:43:24.735Z,10.50
2023-02-11T10:45:52.905Z,9.87
2023-02-11T10:48:43.690Z,9.83
2023-02-11T10:51:14.754Z,9.47
2023-02-11T10:53:43.816Z,11.13
2023-02-11T10:56:22.322Z,11.20
2023-02-11T10:58:57.531Z,9.13
2023-02-11T11:01:38.496Z,10.87
2023-02-11T11:04:06.099Z,10.23
2023-02-11T11:06:34.878Z,9.60
2023-02-11T11:09:02.060Z,9.87
2023-02-11T11:11:29.431Z,11.73
2023-02-11T11:13:59.541Z,10.17
2023-02-11T11:16:27.837Z,9.63
2023-02-11T11:19:14.236Z,9.10
2023-02-11T11:21:51.223Z,10.03
2023-02-11T11:24:27.824Z,8.83
2023-02-11T11:26:58.682Z,9.90
2023-02-11T11:29:27.032Z,10.67
2023-02-11T11:32:00.796Z,11.47
2023-02-11T11:34:33.373Z,10.20
2023-02-11T11:37:09.754Z,10.57
2023-02-11T11:39:37.314Z,10.17
2023-02-11T11:42:22.048Z,9.57
2023-02-11T11:45:08.060Z,8.80
2023-02-11T11:47:41.296Z,9.33
2023-02-11T11:50:14.434Z,9.80
2023-02-11T11:52:43.834Z,10.17
2023-02-11T11:55:20.790Z,8.27
2023-02-11T11:57:52.195Z,9.38
2023-02-11T12:00:29.380Z,10.47
2023-02-11T12:03:15.062Z,9.33
2023-02-11T12:05:50.276Z,9.30
2023-02-11T12:08:30.169Z,8.43
2023-02-11T12:11:19.505Z,10.03
2023-02-11T12:13:53.814Z,9.33
2023-02-11T12:16:31.359Z,7.97
2023-02-11T12:19:00.809Z,8.85
2023-02-11T12:21:39.403Z,9.73
2023-02-11T12:24:09.882Z,9.47
2023-02-11T12:26:38.505Z,9.03
2023-02-11T12:29:12.825Z,8.37
2023-02-11T12:31:47.824Z,11.20
2023-02-11T12:34:33.969Z,9.87
2023-02-11T12:37:17.217Z,9.77
2023-02-11T12:39:54.363Z,8.40
2023-02-11T12:43:05.316Z,7.80
2023-02-11T12:45:41.535Z,8.20
2023-02-11T12:48:13.058Z,8.57
2023-02-11T12:51:07.865Z,7.83
2023-02-11T12:53:45.288Z,9.00
2023-02-11T12:56:24.462Z,8.90
2023-02-11T12:58:56.963Z,8.23
2023-02-11T13:01:27.055Z,8.73
2023-02-11T13:04:00.359Z,7.97
2023-02-11T13:06:34.674Z,8.60
2023-02-11T13:09:05.766Z,8.93
2023-02-11T13:11:40.909Z,8.47
2023-02-11T13:14:22.945Z,8.43
2023-02-11T13:16:50.917Z,8.40
2023-02-11T13:19:31.514Z,7.03
2023-02-11T13:22:04.446Z,6.97
2023-02-11T13:24:57.047Z,8.53
2023-02-11T13:27:32.473Z,7.40
2023-02-11T13:30:24.993Z,8.93
2023-02-11T13:33:11.712Z,6.60
2023-02-11T13:35:47.032Z,6.90
2023-02-11T13:38:28.207Z,8.30
2023-02-11T13:41:05.827Z,7.30
2023-02-11T13:43:38.081Z,7.87
2023-02-11T13:46:06.586Z,7.57
2023-02-11T13:48:36.892Z,7.40
2023-02-11T13:51:11.241Z,7.63
2023-02-11T13:54:04.385Z,8.57
2023-02-11T13:56:33.417Z,7.90
2023-02-11T13:59:02.292Z,6.87
2023-02-11T14:02:08.084Z,7.70
2023-02-11T14:04:53.262Z,8.33
2023-02-11T14:07:49.181Z,7.90
2023-02-11T14:10:34.790Z,7.30
2023-02-11T14:13:05.754Z,6.83
2023-02-11T14:15:40.216Z,7.43
2023-02-11T14:18:35.263Z,7.10
2023-02-11T14:21:13.021Z,7.87
2023-02-11T14:23:45.303Z,7.10
2023-02-11T14:26:26.958Z,8.50
2023-02-11T14:28:53.901Z,6.73
2023-02-11T14:31:35.443Z,6.03
2023-02-11T14:34:09.060Z,7.53
2023-02-11T14:36:55.122Z,7.73
2023-02-11T14:39:40.317Z,6.90
2023-02-11T14:42:15.086Z,7.57
2023-02-11T14:44:42.071Z,6.90
2023-02-11T14:47:19.876Z,6.20
2023-02-11T14:49:49.827Z,6.43
2023-02-11T14:52:33.011Z,6.00
2023-02-11T14:55:10.406Z,6.03
2023-02-11T14:57:43.104Z,6.60
2023-02-11T15:00:22.800Z,5.97
2023-02-11T15:02:49.370Z,6.87
2023-02-11T15:05:26.369Z,6.10
2023-02-11T15:07:55.765Z,5.87
2023-02-11T15:10:36.184Z,7.20
2023-02-11T15:13:04.370Z,5.77
2023-02-11T15:15:33.005Z,6.40
2023-02-11T15:18:01.751Z,6.20
2023-02-11T15:20:32.064Z,7.10
2023-02-11T15:23:02.967Z,5.60
2023-02-11T15:25:33.060Z,6.63
2023-02-11T15:28:00.795Z,6.57
2023-02-11T15:30:29.523Z,5.50
2023-02-11T15:33:02.754Z,6.23
2023-02-11T15:35:37.941Z,6.80
2023-02-11T15:38:05.680Z,6.22
2023-02-11T15:40:33.505Z,6.20
2023-02-11T15:43:10.571Z,6.90
2023-02-11T15:46:04.443Z,6.30
2023-02-11T15:48:45.006Z,6.37
2023-02-11T15:51:12.675Z,5.20
2023-02-11T15:53:42.452Z,5.37
2023-02-11T15:56:17.362Z,5.40
2023-02-11T15:58:45.465Z,5.30
2023-02-11T16:01:12.958Z,5.90
2023-02-11T16:03:43.095Z,4.93
2023-02-11T16:06:16.475Z,5.77
2023-02-11T16:08:44.124Z,4.83
2023-02-11T16:11:26.647Z,5.20
2023-02-11T16:13:54.404Z,5.67
2023-02-11T16:16:28.064Z,5.97
2023-02-11T16:19:05.644Z,6.00
2023-02-11T16:21:38.901Z,5.40
2023-02-11T16:24:07.525Z,5.40
2023-02-11T16:26:44.586Z,5.57
2023-02-11T16:29:16.822Z,5.37
2023-02-11T16:31:50.173Z,6.13
2023-02-11T16:34:23.502Z,6.27
2023-02-11T16:36:52.023Z,5.47
2023-02-11T16:39:22.830Z,5.40
2023-02-11T16:41:53.701Z,4.93
2023-02-11T16:44:20.124Z,5.90
2023-02-11T16:46:48.222Z,5.87
2023-02-11T16:49:25.038Z,4.87
2023-02-11T16:51:57.095Z,5.67
2023-02-11T16:54:25.053Z,5.53
2023-02-11T16:56:54.876Z,5.87
2023-02-11T16:59:23.259Z,6.77
2023-02-11T17:01:51.993Z,5.80
2023-02-11T17:04:21.996Z,5.83
2023-02-11T17:06:49.999Z,6.07
2023-02-11T17:09:19.502Z,5.60
2023-02-11T17:11:50.264Z,6.80
2023-02-11T17:14:18.758Z,6.03
2023-02-11T17:16:46.366Z,5.57
2023-02-11T17:19:14.376Z,5.27
2023-02-11T17:21:42.979Z,5.83
2023-02-11T17:24:09.602Z,7.33
2023-02-11T17:26:43.003Z,6.43
2023-02-11T17:29:12.667Z,6.17
2023-02-11T17:31:39.916Z,6.63
2023-02-11T17:34:07.538Z,6.60
2023-02-11T17:36:35.312Z,7.00
2023-02-11T17:39:07.676Z,6.83
2023-02-11T17:41:37.037Z,6.03
2023-02-11T17:44:05.026Z,5.97
2023-02-11T17:46:37.089Z,6.10
2023-02-11T17:49:06.376Z,6.50
2023-02-11T17:51:38.547Z,7.23
2023-02-11T17:54:06.963Z,6.40
2023-02-11T17:56:34.484Z,8.23
2023-02-11T17:59:05.616Z,7.40
2023-02-11T18:01:32.977Z,6.67
2023-02-11T18:03:59.422Z,6.87
2023-02-11T18:06:26.904Z,7.87
2023-02-11T18:08:56.848Z,7.90
2023-02-11T18:11:25.161Z,7.47
2023-02-11T18:13:56.112Z,7.37
2023-02-11T18:16:23.920Z,6.93
2023-02-11T18:18:50.334Z,6.90
2023-02-11T18:21:18.648Z,7.17
2023-02-11T18:23:46.073Z,6.27
2023-02-11T18:26:19.152Z,6.77
2023-02-11T18:28:46.551Z,7.60
2023-02-11T18:31:14.141Z,8.03
2023-02-11T18:33:42.596Z,7.90
2023-02-11T18:36:14.713Z,6.27
2023-02-11T18:38:41.702Z,6.20
2023-02-11T18:41:08.908Z,7.60
2023-02-11T18:43:36.057Z,7.23
2023-02-11T18:46:06.271Z,7.60
2023-02-11T18:48:34.327Z,6.60
2023-02-11T18:51:01.695Z,7.67
2023-02-11T18:53:30.973Z,6.97
2023-02-11T18:56:01.937Z,7.77
2023-02-11T18:58:28.366Z,8.13
2023-02-11T19:00:56.527Z,7.87
2023-02-11T19:03:23.027Z,7.80
2023-02-11T19:05:49.833Z,7.33
2023-02-11T19:08:18.661Z,7.90
2023-02-11T19:10:45.873Z,7.00
2023-02-11T19:13:16.240Z,7.50
2023-02-11T19:15:43.908Z,7.00
2023-02-11T19:18:12.060Z,7.30
2023-02-11T19:20:42.797Z,7.67
2023-02-11T19:23:09.532Z,7.50
2023-02-11T19:25:36.092Z,7.57
2023-02-11T19:28:04.135Z,7.87
2023-02-11T19:30:31.023Z,7.57
2023-02-11T19:32:57.688Z,7.30
2023-02-11T19:35:27.792Z,7.33
2023-02-11T19:37:56.640Z,7.50
2023-02-11T19:40:23.399Z,6.33
2023-02-11T19:42:49.802Z,7.67
2023-02-11T19:45:18.915Z,8.37
2023-02-11T19:47:49.421Z,6.33
2023-02-11T19:50:19.958Z,7.10
2023-02-11T19:52:46.632Z,7.87
2023-02-11T19:55:22.025Z,6.57
2023-02-11T19:57:49.630Z,7.13
2023-02-11T20:00:16.238Z,7.53
2023-02-11T20:02:43.961Z,6.73
2023-02-11T20:05:10.668Z,7.63
2023-02-11T20:07:37.084Z,8.07
2023-02-11T20:10:03.894Z,7.13
2023-02-11T20:12:32.856Z,7.60
2023-02-11T20:14:59.214Z,7.10
2023-02-11T20:17:25.590Z,7.40
2023-02-11T20:19:52.726Z,7.00
2023-02-11T20:22:19.201Z,7.10
2023-02-11T20:24:47.044Z,6.67
2023-02-11T20:27:14.217Z,7.07
2023-02-11T20:29:42.875Z,7.23
2023-02-11T20:32:11.002Z,7.00
2023-02-11T20:34:42.048Z,6.83
2023-02-11T20:37:12.678Z,7.13
2023-02-11T20:39:40.903Z,8.60
2023-02-11T20:42:15.992Z,6.87
2023-02-11T20:44:42.512Z,7.67
2023-02-11T20:47:09.862Z,7.93
2023-02-11T20:49:36.445Z,7.10
2023-02-11T20:52:03.854Z,8.50
2023-02-11T20:54:30.984Z,8.77
2023-02-11T20:57:06.916Z,7.77
2023-02-11T20:59:36.731Z,7.85
2023-02-11T21:02:06.377Z,6.63
2023-02-11T21:04:33.287Z,8.27
2023-02-11T21:07:04.223Z,7.30
2023-02-11T21:09:34.524Z,7.83
2023-02-11T21:12:01.954Z,8.00
2023-02-11T21:14:28.609Z,7.93
2023-02-11T21:16:57.617Z,7.00
2023-02-11T21:19:26.580Z,7.60
2023-02-11T21:22:00.686Z,7.57
2023-02-11T21:24:27.755Z,6.83
2023-02-11T21:26:54.679Z,7.27
2023-02-11T21:29:21.753Z,7.80
2023-02-11T21:31:48.611Z,8.47
2023-02-11T21:34:17.950Z,8.50
2023-02-11T21:36:45.785Z,7.37
2023-02-11T21:39:13.595Z,7.60
2023-02-11T21:41:40.174Z,8.70
2023-02-11T21:44:08.931Z,8.30
2023-02-11T21:46:36.771Z,7.60
2023-02-11T21:49:06.491Z,7.93
2023-02-11T21:51:34.087Z,8.03
2023-02-11T21:54:01.619Z,8.00
2023-02-11T21:56:28.990Z,8.70
2023-02-11T21:58:56.567Z,7.90
2023-02-11T22:01:24.376Z,7.53
2023-02-11T22:03:52.142Z,7.67
2023-02-11T22:06:26.082Z,7.00
2023-02-11T22:08:54.465Z,8.07
2023-02-11T22:11:23.436Z,8.20
2023-02-11T22:13:54.966Z,8.87
2023-02-11T22:16:23.053Z,8.57
2023-02-11T22:18:51.380Z,7.83
2023-02-11T22:21:19.108Z,8.17
2023-02-11T22:23:47.010Z,8.77
2023-02-11T22:26:18.242Z,8.23
2023-02-11T22:28:45.140Z,9.27
2023-02-11T22:31:16.157Z,7.90
2023-02-11T22:33:45.195Z,8.17
2023-02-11T22:36:21.922Z,8.53
2023-02-11T22:38:50.250Z,8.93
2023-02-11T22:41:17.480Z,8.00
2023-02-11T22:43:45.109Z,8.57
2023-02-11T22:46:13.980Z,8.93
2023-02-11T22:48:40.884Z,8.33
2023-02-11T22:51:11.290Z,8.83
2023-02-11T22:53:37.922Z,7.20
2023-02-11T22:56:06.725Z,8.67
2023-02-11T22:58:36.580Z,9.27
2023-02-11T23:01:04.223Z,7.83
2023-02-11T23:03:31.576Z,8.60
2023-02-11T23:05:59.732Z,6.20
2023-02-11T23:08:33.854Z,7.73
2023-02-11T23:11:05.774Z,7.93
2023-02-11T23:13:35.184Z,8.43
2023-02-11T23:16:05.344Z,7.60
2023-02-11T23:18:34.658Z,8.77
2023-02-11T23:21:12.398Z,8.10
2023-02-11T23:23:39.672Z,7.60
2023-02-11T23:26:18.063Z,8.43
2023-02-11T23:28:50.601Z,9.07
2023-02-11T23:31:24.511Z,8.17
2023-02-11T23:33:51.598Z,8.90
2023-02-11T23:36:19.062Z,7.80
2023-02-11T23:38:47.357Z,8.87
2023-02-11T23:41:14.069Z,8.93
2023-02-11T23:43:41.071Z,8.27
2023-02-11T23:46:10.256Z,8.33
2023-02-11T23:48:39.060Z,10.10
2023-02-11T23:51:09.784Z,8.20
2023-02-11T23:53:37.163Z,7.23
2023-02-11T23:56:08.978Z,8.33
2023-02-11T23:58:35.624Z,8.37
